Time;durP1;ratioP1;P1;durP2;ratioP2;P2;SDS_P1;SDS_P2;PMS_P1;PMS_P2;Temp;Humidity;BMP_temperature;BMP_pressure;BME280_temperature;BME280_humidity;BME280_pressure;Samples;Min_cycle;Max_cycle;Signal;HPM_P1;HPM_P2
2023/04/05 00:01:41;;;;;;;4.47;3.30;;;;;;;;;;4999179;28;20493;-55
2023/04/05 00:04:07;;;;;;;3.90;3.33;;;;;;;;;;4997458;28;20190;-55
2023/04/05 00:06:33;;;;;;;3.70;2.90;;;;;;;;;;4997893;28;20206;-54
2023/04/05 00:08:59;;;;;;;4.73;3.47;;;;;;;;;;4998005;28;20182;-54
2023/04/05 00:11:26;;;;;;;3.20;2.90;;;;;;;;;;5000893;28;20217;-55
2023/04/05 00:13:52;;;;;;;6.43;3.80;;;;;;;;;;5002687;28;20631;-55
2023/04/05 00:16:19;;;;;;;3.47;3.10;;;;;;;;;;5000854;28;20518;-54
2023/04/05 00:18:50;;;;;;;3.30;3.00;;;;;;;;;;4999320;28;20178;-55
2023/04/05 00:21:16;;;;;;;3.40;3.10;;;;;;;;;;4999153;28;20226;-54
2023/04/05 00:23:43;;;;;;;4.13;3.57;;;;;;;;;;4997507;28;20196;-54
2023/04/05 00:26:10;;;;;;;4.20;3.27;;;;;;;;;;4999758;28;20187;-54
2023/04/05 00:28:36;;;;;;;3.50;2.80;;;;;;;;;;4997205;28;20253;-54
2023/04/05 00:31:03;;;;;;;4.83;3.43;;;;;;;;;;5002000;28;20396;-54
2023/04/05 00:33:29;;;;;;;3.73;3.13;;;;;;;;;;4999137;28;20207;-54
2023/04/05 00:35:55;;;;;;;3.50;3.20;;;;;;;;;;4997121;28;20605;-54
2023/04/05 00:38:21;;;;;;;4.00;3.53;;;;;;;;;;4997387;28;20741;-55
2023/04/05 00:40:47;;;;;;;3.80;3.20;;;;;;;;;;4999139;28;20186;-54
2023/04/05 00:43:14;;;;;;;3.97;3.10;;;;;;;;;;4997579;28;20282;-54
2023/04/05 00:45:41;;;;;;;3.90;3.00;;;;;;;;;;5002949;28;20631;-55
2023/04/05 00:48:07;;;;;;;3.60;3.20;;;;;;;;;;4997863;28;20211;-55
2023/04/05 00:50:34;;;;;;;3.83;3.20;;;;;;;;;;4998434;28;20274;-54
2023/04/05 00:53:00;;;;;;;4.67;3.03;;;;;;;;;;4999782;28;20183;-55
2023/04/05 00:55:26;;;;;;;3.80;2.90;;;;;;;;;;4997332;28;20533;-54
2023/04/05 00:57:55;;;;;;;5.90;3.67;;;;;;;;;;4998139;28;20187;-55
2023/04/05 01:00:22;;;;;;;3.20;2.67;;;;;;;;;;5001153;28;20592;-55
2023/04/05 01:02:50;;;;;;;4.27;3.40;;;;;;;;;;4999787;28;20197;-54
2023/04/05 01:05:24;;;;;;;3.40;3.10;;;;;;;;;;5000033;28;20201;-55
2023/04/05 01:07:55;;;;;;;3.73;3.10;;;;;;;;;;4999190;28;20574;-55
2023/04/05 01:10:22;;;;;;;3.80;3.27;;;;;;;;;;4996178;28;20189;-55
2023/04/05 01:12:48;;;;;;;4.23;3.40;;;;;;;;;;4999661;28;20205;-55
2023/04/05 01:15:14;;;;;;;3.27;2.83;;;;;;;;;;4998512;28;20218;-55
2023/04/05 01:17:41;;;;;;;3.57;3.00;;;;;;;;;;5000246;28;20179;-54
2023/04/05 01:20:09;;;;;;;3.77;3.03;;;;;;;;;;4996083;28;20210;-55
2023/04/05 01:22:41;;;;;;;3.97;2.77;;;;;;;;;;4999159;28;20782;-54
2023/04/05 01:25:22;;;;;;;4.37;3.47;;;;;;;;;;4996613;28;20245;-54
2023/04/05 01:27:48;;;;;;;4.77;3.30;;;;;;;;;;4997759;28;20175;-55
2023/04/05 01:30:18;;;;;;;5.23;4.03;;;;;;;;;;4999061;28;20624;-55
2023/04/05 01:32:47;;;;;;;4.87;3.30;;;;;;;;;;5014145;28;20190;-54
2023/04/05 01:35:33;;;;;;;5.70;3.37;;;;;;;;;;4997974;28;20364;-54
2023/04/05 01:38:01;;;;;;;4.93;3.80;;;;;;;;;;4999031;28;20190;-54
2023/04/05 01:40:28;;;;;;;5.17;3.73;;;;;;;;;;4998464;28;20177;-54
2023/04/05 01:42:54;;;;;;;3.90;3.47;;;;;;;;;;4997403;28;20958;-54
2023/04/05 01:45:20;;;;;;;5.47;3.17;;;;;;;;;;4997769;28;20229;-54
2023/04/05 01:47:46;;;;;;;3.40;3.10;;;;;;;;;;5001250;28;20187;-55
2023/04/05 01:50:12;;;;;;;3.50;2.87;;;;;;;;;;4997097;28;20189;-54
2023/04/05 01:52:38;;;;;;;6.20;3.53;;;;;;;;;;4997573;28;20199;-54
2023/04/05 01:55:04;;;;;;;3.50;3.20;;;;;;;;;;4997197;28;20270;-55
2023/04/05 01:57:30;;;;;;;4.63;3.77;;;;;;;;;;4996602;28;20179;-54
2023/04/05 01:59:56;;;;;;;4.77;3.30;;;;;;;;;;4997952;28;20317;-55
2023/04/05 02:02:22;;;;;;;3.97;3.40;;;;;;;;;;5002689;28;20186;-55
2023/04/05 02:04:48;;;;;;;4.83;3.93;;;;;;;;;;4998023;28;20236;-55
2023/04/05 02:07:15;;;;;;;4.57;3.50;;;;;;;;;;4995910;28;20264;-54
2023/04/05 02:09:41;;;;;;;3.77;3.23;;;;;;;;;;4996795;28;20198;-54
2023/04/05 02:12:07;;;;;;;4.10;3.37;;;;;;;;;;4997068;28;20336;-54
2023/04/05 02:14:34;;;;;;;4.97;3.37;;;;;;;;;;4995693;28;20229;-55
2023/04/05 02:17:01;;;;;;;6.33;3.57;;;;;;;;;;5006433;28;20188;-55
2023/04/05 02:19:28;;;;;;;5.37;2.93;;;;;;;;;;4998063;28;20175;-54
2023/04/05 02:21:55;;;;;;;4.37;3.17;;;;;;;;;;4997101;28;20222;-54
2023/04/05 02:24:21;;;;;;;4.97;3.60;;;;;;;;;;4996822;28;20198;-54
2023/04/05 02:26:47;;;;;;;9.97;3.90;;;;;;;;;;4998007;28;20179;-54
2023/04/05 02:29:13;;;;;;;4.50;3.30;;;;;;;;;;4997967;28;20190;-54
2023/04/05 02:31:39;;;;;;;3.57;3.07;;;;;;;;;;4998555;28;20199;-55
2023/04/05 02:34:08;;;;;;;4.70;3.03;;;;;;;;;;5003624;28;20210;-54
2023/04/05 02:36:34;;;;;;;8.03;3.77;;;;;;;;;;4997513;28;20262;-54
2023/04/05 02:39:00;;;;;;;5.07;3.20;;;;;;;;;;4996321;28;20182;-54
2023/04/05 02:41:26;;;;;;;3.80;3.27;;;;;;;;;;4996282;28;20273;-54
2023/04/05 02:43:52;;;;;;;5.23;3.20;;;;;;;;;;4998491;28;20183;-54
2023/04/05 02:46:18;;;;;;;4.03;2.90;;;;;;;;;;4995953;28;20194;-54
2023/04/05 02:48:45;;;;;;;3.27;2.97;;;;;;;;;;4999907;28;20193;-54
2023/04/05 02:51:11;;;;;;;4.13;3.27;;;;;;;;;;4997279;28;20552;-54
2023/04/05 02:53:37;;;;;;;8.70;3.00;;;;;;;;;;4994310;28;20210;-54
2023/04/05 02:56:03;;;;;;;5.20;3.43;;;;;;;;;;4997136;28;20687;-54
2023/04/05 02:58:30;;;;;;;3.93;3.07;;;;;;;;;;5001463;28;20643;-54
2023/04/05 03:00:56;;;;;;;3.97;2.73;;;;;;;;;;4999739;28;20188;-54
2023/04/05 03:03:22;;;;;;;5.40;4.67;;;;;;;;;;5003926;28;20441;-54
2023/04/05 03:05:56;;;;;;;5.20;3.40;;;;;;;;;;5003258;28;20738;-54
2023/04/05 03:08:22;;;;;;;5.30;3.50;;;;;;;;;;5001402;28;20214;-54
2023/04/05 03:10:50;;;;;;;5.87;4.13;;;;;;;;;;5000677;28;20201;-54
2023/04/05 03:13:17;;;;;;;3.33;2.90;;;;;;;;;;4999019;28;20212;-54
2023/04/05 03:15:43;;;;;;;5.43;3.37;;;;;;;;;;5001776;28;20678;-54
2023/04/05 03:18:09;;;;;;;4.83;3.93;;;;;;;;;;5000003;28;20657;-54
2023/04/05 03:20:38;;;;;;;4.20;3.10;;;;;;;;;;5001468;28;20614;-54
2023/04/05 03:23:06;;;;;;;3.80;3.30;;;;;;;;;;4999392;28;20179;-54
2023/04/05 03:25:33;;;;;;;4.53;3.27;;;;;;;;;;5000163;28;20229;-54
2023/04/05 03:27:59;;;;;;;3.70;3.17;;;;;;;;;;5001655;28;20209;-54
2023/04/05 03:30:27;;;;;;;5.33;4.20;;;;;;;;;;5001054;28;20175;-54
2023/04/05 03:32:53;;;;;;;4.67;3.40;;;;;;;;;;5000094;28;20659;-54
2023/04/05 03:35:19;;;;;;;3.40;3.10;;;;;;;;;;5004073;28;20245;-54
2023/04/05 03:37:45;;;;;;;6.07;3.57;;;;;;;;;;5000792;28;20639;-54
2023/04/05 03:40:11;;;;;;;5.07;4.40;;;;;;;;;;4999908;28;20183;-54
2023/04/05 03:42:37;;;;;;;3.67;3.20;;;;;;;;;;4999090;28;20269;-54
2023/04/05 03:45:05;;;;;;;6.80;3.20;;;;;;;;;;5000563;28;20670;-54
2023/04/05 03:47:31;;;;;;;4.20;3.23;;;;;;;;;;5000245;28;20224;-55
2023/04/05 03:49:57;;;;;;;4.13;3.20;;;;;;;;;;5003186;28;20324;-55
2023/04/05 03:52:23;;;;;;;6.53;3.17;;;;;;;;;;5000087;28;20317;-54
2023/04/05 03:54:49;;;;;;;4.37;3.07;;;;;;;;;;4999688;28;20302;-54
2023/04/05 03:57:15;;;;;;;4.53;3.40;;;;;;;;;;4999733;28;20722;-54
2023/04/05 03:59:41;;;;;;;5.70;3.73;;;;;;;;;;4999599;28;20186;-54
2023/04/05 04:02:07;;;;;;;3.83;3.30;;;;;;;;;;5001103;28;20261;-54
2023/04/05 04:04:33;;;;;;;4.50;3.20;;;;;;;;;;4999656;28;20197;-54
2023/04/05 04:06:59;;;;;;;5.23;3.27;;;;;;;;;;5001264;28;21682;-54
2023/04/05 04:09:28;;;;;;;4.77;3.40;;;;;;;;;;4998497;28;20706;-54
2023/04/05 04:11:55;;;;;;;3.43;2.90;;;;;;;;;;5000126;28;20205;-54
2023/04/05 04:14:21;;;;;;;3.70;3.13;;;;;;;;;;4998168;28;20289;-54
2023/04/05 04:16:47;;;;;;;3.23;2.93;;;;;;;;;;4999648;28;20178;-54
2023/04/05 04:19:13;;;;;;;4.73;3.27;;;;;;;;;;4999006;28;20187;-54
2023/04/05 04:21:47;;;;;;;3.83;3.33;;;;;;;;;;5003692;28;20656;-54
2023/04/05 04:24:17;;;;;;;4.13;3.13;;;;;;;;;;4997562;28;20205;-54
2023/04/05 04:26:43;;;;;;;4.77;3.43;;;;;;;;;;5000611;28;20195;-54
2023/04/05 04:29:11;;;;;;;4.47;3.60;;;;;;;;;;5000481;28;20195;-54
2023/04/05 04:31:38;;;;;;;4.60;3.00;;;;;;;;;;4998033;28;20175;-54
2023/04/05 04:34:04;;;;;;;4.20;3.27;;;;;;;;;;4997179;28;20523;-54
2023/04/05 04:36:35;;;;;;;3.77;3.23;;;;;;;;;;4997884;28;20191;-54
2023/04/05 04:39:05;;;;;;;5.07;3.70;;;;;;;;;;4998221;28;20262;-54
2023/04/05 04:41:34;;;;;;;4.30;3.40;;;;;;;;;;4999198;28;20623;-54
2023/04/05 04:44:04;;;;;;;3.77;3.37;;;;;;;;;;4998733;28;20323;-54
2023/04/05 04:46:41;;;;;;;3.93;3.47;;;;;;;;;;4998211;28;20240;-54
2023/04/05 04:49:08;;;;;;;3.90;3.33;;;;;;;;;;4998827;28;20642;-54
2023/04/05 04:51:36;;;;;;;4.23;3.80;;;;;;;;;;5000308;28;20722;-54
2023/04/05 04:54:03;;;;;;;4.30;3.83;;;;;;;;;;4998318;28;20597;-54
2023/04/05 04:56:29;;;;;;;5.17;3.70;;;;;;;;;;4996855;28;20178;-54
2023/04/05 04:58:55;;;;;;;3.77;3.10;;;;;;;;;;4999290;28;20186;-54
2023/04/05 05:01:23;;;;;;;7.20;3.27;;;;;;;;;;4998664;28;20187;-54
2023/04/05 05:03:49;;;;;;;3.93;3.10;;;;;;;;;;4996911;28;20271;-54
2023/04/05 05:06:20;;;;;;;5.20;3.10;;;;;;;;;;4997692;28;20577;-54
2023/04/05 05:08:46;;;;;;;4.47;3.33;;;;;;;;;;5000572;28;20201;-54
2023/04/05 05:11:13;;;;;;;3.80;3.47;;;;;;;;;;4998006;28;20701;-53
2023/04/05 05:13:39;;;;;;;4.30;3.90;;;;;;;;;;4998173;28;20194;-54
2023/04/05 05:16:05;;;;;;;3.63;3.13;;;;;;;;;;4998437;28;20183;-55
2023/04/05 05:18:31;;;;;;;4.60;3.37;;;;;;;;;;4997277;28;20171;-57
2023/04/05 05:20:57;;;;;;;5.47;3.63;;;;;;;;;;4997776;28;20223;-54
2023/04/05 05:23:23;;;;;;;4.70;3.90;;;;;;;;;;5006918;28;20581;-54
2023/04/05 05:25:50;;;;;;;5.33;3.43;;;;;;;;;;4996579;28;20592;-54
2023/04/05 05:28:16;;;;;;;4.73;3.67;;;;;;;;;;4998717;28;20536;-54
2023/04/05 05:30:42;;;;;;;5.93;3.67;;;;;;;;;;4997932;28;20206;-54
2023/04/05 05:33:08;;;;;;;3.33;3.03;;;;;;;;;;4999950;28;20550;-54
2023/04/05 05:35:36;;;;;;;4.20;3.47;;;;;;;;;;4996119;28;20694;-55
2023/04/05 05:38:02;;;;;;;5.07;3.43;;;;;;;;;;4999518;28;20178;-54
2023/04/05 05:40:28;;;;;;;4.33;3.80;;;;;;;;;;4997506;28;20197;-54
2023/04/05 05:42:55;;;;;;;5.97;3.70;;;;;;;;;;4999233;28;20190;-54
2023/04/05 05:45:21;;;;;;;3.73;3.03;;;;;;;;;;4997808;28;20190;-54
2023/04/05 05:47:47;;;;;;;5.43;4.00;;;;;;;;;;4999192;28;20642;-53
2023/04/05 05:50:15;;;;;;;4.57;3.53;;;;;;;;;;4997404;28;20174;-54
2023/04/05 05:52:41;;;;;;;4.50;3.67;;;;;;;;;;4995899;28;20189;-54
2023/04/05 05:55:08;;;;;;;7.20;3.83;;;;;;;;;;5001370;28;20198;-54
2023/04/05 05:57:35;;;;;;;4.17;3.53;;;;;;;;;;4998076;28;20187;-54
2023/04/05 06:00:01;;;;;;;4.20;3.57;;;;;;;;;;4997353;28;20174;-54
2023/04/05 06:02:28;;;;;;;5.03;3.40;;;;;;;;;;4998105;28;20287;-54
2023/04/05 06:04:54;;;;;;;4.90;3.87;;;;;;;;;;4997685;28;20186;-54
2023/04/05 06:07:20;;;;;;;6.73;4.10;;;;;;;;;;4997908;28;20736;-54
2023/04/05 06:09:47;;;;;;;4.47;3.40;;;;;;;;;;4999265;28;20186;-54
2023/04/05 06:12:13;;;;;;;4.77;3.37;;;;;;;;;;4996495;28;20718;-54
2023/04/05 06:14:39;;;;;;;5.63;3.60;;;;;;;;;;4997897;28;20773;-54
2023/04/05 06:17:05;;;;;;;4.70;3.60;;;;;;;;;;4997482;28;20191;-55
2023/04/05 06:19:31;;;;;;;5.33;3.93;;;;;;;;;;4997504;28;20611;-55
2023/04/05 06:21:59;;;;;;;7.00;3.97;;;;;;;;;;4997559;28;20711;-55
2023/04/05 06:24:26;;;;;;;4.07;3.67;;;;;;;;;;4996144;28;20182;-54
2023/04/05 06:26:52;;;;;;;6.90;4.93;;;;;;;;;;4993554;28;20281;-54
2023/04/05 06:29:18;;;;;;;4.47;3.50;;;;;;;;;;4993337;28;20197;-55
2023/04/05 06:31:45;;;;;;;5.50;4.00;;;;;;;;;;5000299;28;20543;-54
2023/04/05 06:34:11;;;;;;;5.17;4.30;;;;;;;;;;4995996;28;21668;-55
2023/04/05 06:36:37;;;;;;;4.20;3.73;;;;;;;;;;5000034;28;20669;-55
2023/04/05 06:39:03;;;;;;;6.43;3.73;;;;;;;;;;5014091;28;20269;-54
2023/04/05 06:41:29;;;;;;;5.70;4.00;;;;;;;;;;5002293;28;20196;-55
2023/04/05 06:43:55;;;;;;;5.63;4.03;;;;;;;;;;4998861;28;20190;-55
2023/04/05 06:46:22;;;;;;;4.67;3.93;;;;;;;;;;4998180;28;20210;-55
2023/04/05 06:48:49;;;;;;;5.87;4.43;;;;;;;;;;4999230;28;20189;-55
2023/04/05 06:51:15;;;;;;;9.77;4.17;;;;;;;;;;4997033;28;20563;-55
2023/04/05 06:53:41;;;;;;;5.73;3.97;;;;;;;;;;4995579;28;20217;-51
2023/04/05 06:56:07;;;;;;;5.47;4.43;;;;;;;;;;5001052;28;20182;-51
2023/04/05 06:58:34;;;;;;;7.33;3.83;;;;;;;;;;4999157;28;20194;-51
2023/04/05 07:01:01;;;;;;;4.70;3.50;;;;;;;;;;4998544;28;20253;-51
2023/04/05 07:03:27;;;;;;;5.07;3.60;;;;;;;;;;4997532;28;20623;-51
2023/04/05 07:05:58;;;;;;;4.90;4.03;;;;;;;;;;5002815;28;20529;-51
2023/04/05 07:08:24;;;;;;;5.03;3.67;;;;;;;;;;4998676;28;20198;-51
2023/04/05 07:10:51;;;;;;;5.77;4.20;;;;;;;;;;4998637;28;20402;-51
2023/04/05 07:13:17;;;;;;;4.77;3.50;;;;;;;;;;5010317;28;20925;-51
2023/04/05 07:15:44;;;;;;;5.13;4.23;;;;;;;;;;5001417;28;20583;-51
2023/04/05 07:18:10;;;;;;;6.73;3.97;;;;;;;;;;5002413;28;20197;-51
2023/04/05 07:20:36;;;;;;;4.60;4.20;;;;;;;;;;5000613;28;20241;-51
2023/04/05 07:23:04;;;;;;;4.00;3.67;;;;;;;;;;5003506;28;20201;-51
2023/04/05 07:25:30;;;;;;;4.63;4.20;;;;;;;;;;4999721;28;20194;-51
2023/04/05 07:27:56;;;;;;;6.57;4.37;;;;;;;;;;5003146;28;20768;-51
2023/04/05 07:30:22;;;;;;;4.47;4.00;;;;;;;;;;4996210;28;20270;-51
2023/04/05 07:32:48;;;;;;;5.23;4.17;;;;;;;;;;4998747;28;20329;-52
2023/04/05 07:35:14;;;;;;;6.87;4.17;;;;;;;;;;5000888;28;20216;-51
2023/04/05 07:37:40;;;;;;;6.33;3.83;;;;;;;;;;5009717;28;20190;-51
2023/04/05 07:40:07;;;;;;;7.27;4.17;;;;;;;;;;5000199;28;20543;-51
2023/04/05 07:42:33;;;;;;;4.37;3.93;;;;;;;;;;5002372;28;20265;-51
2023/04/05 07:44:59;;;;;;;3.83;3.40;;;;;;;;;;4999993;28;20186;-51
2023/04/05 07:47:26;;;;;;;4.33;3.43;;;;;;;;;;4998631;28;20627;-51
2023/04/05 07:49:52;;;;;;;4.40;3.70;;;;;;;;;;4998979;28;20580;-51
2023/04/05 07:52:18;;;;;;;5.07;3.97;;;;;;;;;;4997302;28;20182;-51
2023/04/05 07:54:44;;;;;;;4.13;3.73;;;;;;;;;;4995650;28;20214;-51
2023/04/05 07:57:16;;;;;;;4.07;3.67;;;;;;;;;;5005422;28;20816;-51
2023/04/05 07:59:42;;;;;;;5.20;3.90;;;;;;;;;;4992296;28;20519;-51
2023/04/05 08:02:08;;;;;;;4.30;3.10;;;;;;;;;;5010255;28;20232;-51
2023/04/05 08:04:34;;;;;;;5.67;4.13;;;;;;;;;;5009144;28;20182;-51
2023/04/05 08:07:00;;;;;;;4.40;3.63;;;;;;;;;;5007771;28;20190;-51
2023/04/05 08:09:26;;;;;;;3.67;3.37;;;;;;;;;;5009591;28;20290;-51
2023/04/05 08:11:52;;;;;;;3.73;3.30;;;;;;;;;;5009872;28;20265;-51
2023/04/05 08:14:18;;;;;;;3.77;3.13;;;;;;;;;;5008964;28;20297;-51
2023/04/05 08:16:44;;;;;;;3.47;2.90;;;;;;;;;;5007908;28;20737;-51
2023/04/05 08:19:10;;;;;;;3.50;3.20;;;;;;;;;;5025162;28;20194;-51
2023/04/05 08:21:36;;;;;;;4.97;3.30;;;;;;;;;;5006471;28;20226;-51
2023/04/05 08:24:02;;;;;;;3.90;3.50;;;;;;;;;;5008977;28;20316;-52
2023/04/05 08:26:28;;;;;;;5.03;3.33;;;;;;;;;;5008279;28;20187;-51
2023/04/05 08:28:54;;;;;;;3.53;3.20;;;;;;;;;;5005155;28;20209;-51
2023/04/05 08:31:20;;;;;;;7.17;3.07;;;;;;;;;;5003519;28;20506;-51
2023/04/05 08:33:47;;;;;;;3.27;2.97;;;;;;;;;;5006374;28;20213;-51
2023/04/05 08:36:13;;;;;;;3.80;3.40;;;;;;;;;;5008896;28;20678;-51
2023/04/05 08:38:39;;;;;;;3.10;2.60;;;;;;;;;;5005699;28;20201;-52
2023/04/05 08:41:08;;;;;;;3.97;3.40;;;;;;;;;;5006243;28;20710;-51
2023/04/05 08:43:44;;;;;;;3.57;3.27;;;;;;;;;;5006334;28;20285;-51
2023/04/05 08:46:13;;;;;;;3.53;2.90;;;;;;;;;;5006714;28;20548;-52
2023/04/05 08:48:40;;;;;;;4.17;2.90;;;;;;;;;;5011133;28;20675;-51
2023/04/05 08:51:08;;;;;;;3.20;2.90;;;;;;;;;;4997251;28;20682;-51
2023/04/05 08:53:34;;;;;;;4.30;3.13;;;;;;;;;;5000843;28;20225;-51
2023/04/05 08:56:00;;;;;;;3.87;3.20;;;;;;;;;;5003114;28;20647;-51
2023/04/05 08:58:26;;;;;;;4.57;3.17;;;;;;;;;;5003751;28;21003;-51
2023/04/05 09:00:53;;;;;;;3.60;2.73;;;;;;;;;;5005431;28;20274;-51
2023/04/05 09:03:23;;;;;;;5.50;3.13;;;;;;;;;;5000137;28;20214;-52
2023/04/05 09:05:53;;;;;;;3.93;2.70;;;;;;;;;;5001840;28;20835;-52
2023/04/05 09:08:22;;;;;;;3.13;2.83;;;;;;;;;;5002361;28;20694;-51
2023/04/05 09:10:51;;;;;;;3.80;2.93;;;;;;;;;;5003177;28;20575;-52
2023/04/05 09:13:17;;;;;;;3.53;2.93;;;;;;;;;;5001437;28;20202;-51
2023/04/05 09:15:43;;;;;;;4.20;3.23;;;;;;;;;;5000438;28;20187;-51
2023/04/05 09:18:10;;;;;;;4.43;3.30;;;;;;;;;;4997889;28;20253;-50
2023/04/05 09:20:36;;;;;;;3.50;3.00;;;;;;;;;;4999577;28;20226;-52
2023/04/05 09:23:02;;;;;;;3.80;3.40;;;;;;;;;;5003734;28;20213;-52
2023/04/05 09:25:41;;;;;;;5.67;3.10;;;;;;;;;;5000169;28;20693;-52
2023/04/05 09:28:08;;;;;;;5.03;3.50;;;;;;;;;;5002526;28;20332;-52
2023/04/05 09:30:36;;;;;;;3.50;2.83;;;;;;;;;;5004252;28;20209;-52
2023/04/05 09:33:02;;;;;;;4.03;3.13;;;;;;;;;;5000782;28;20216;-52
2023/04/05 09:35:32;;;;;;;3.53;3.10;;;;;;;;;;4999399;28;20340;-52
2023/04/05 09:37:59;;;;;;;7.93;3.47;;;;;;;;;;5005073;28;20198;-52
2023/04/05 09:40:45;;;;;;;3.40;3.10;;;;;;;;;;5006057;28;20171;-52
2023/04/05 09:43:12;;;;;;;4.37;2.90;;;;;;;;;;5005614;28;20340;-52
2023/04/05 09:45:40;;;;;;;3.83;2.80;;;;;;;;;;5004031;28;20285;-52
2023/04/05 09:48:06;;;;;;;3.83;3.30;;;;;;;;;;5006386;28;20206;-55
2023/04/05 09:50:32;;;;;;;4.77;3.23;;;;;;;;;;5004002;28;20186;-52
2023/04/05 09:53:06;;;;;;;3.23;2.93;;;;;;;;;;5006266;28;20174;-52
2023/04/05 09:55:33;;;;;;;5.27;3.20;;;;;;;;;;5002826;28;20202;-52
2023/04/05 09:57:59;;;;;;;4.73;3.40;;;;;;;;;;5004278;28;20654;-52
2023/04/05 10:00:25;;;;;;;5.07;3.03;;;;;;;;;;5000508;28;20225;-52
2023/04/05 10:02:55;;;;;;;3.77;3.43;;;;;;;;;;5006047;28;20186;-52
2023/04/05 10:05:26;;;;;;;4.17;3.23;;;;;;;;;;5003612;28;20185;-52
2023/04/05 10:07:52;;;;;;;3.33;3.03;;;;;;;;;;5004296;28;20263;-52
2023/04/05 10:10:18;;;;;;;6.77;3.20;;;;;;;;;;5001637;28;20932;-51
2023/04/05 10:12:45;;;;;;;3.70;3.30;;;;;;;;;;5002137;28;20591;-52
2023/04/05 10:15:13;;;;;;;3.13;2.60;;;;;;;;;;5001018;28;20206;-52
2023/04/05 10:17:54;;;;;;;4.00;3.40;;;;;;;;;;5001754;28;20229;-52
2023/04/05 10:20:24;;;;;;;3.47;3.17;;;;;;;;;;5004906;28;20190;-52
2023/04/05 10:22:57;;;;;;;3.33;2.93;;;;;;;;;;4997917;28;20772;-52
2023/04/05 10:25:41;;;;;;;4.47;3.57;;;;;;;;;;4992986;28;20710;-52
2023/04/05 10:28:11;;;;;;;7.70;4.00;;;;;;;;;;4994883;28;20185;-52
2023/04/05 10:30:42;;;;;;;4.37;3.17;;;;;;;;;;4994942;28;20270;-52
2023/04/05 10:33:27;;;;;;;3.27;2.93;;;;;;;;;;4997775;28;20194;-52
2023/04/05 10:36:14;;;;;;;3.00;2.70;;;;;;;;;;4995367;28;20192;-52
2023/04/05 10:38:57;;;;;;;5.67;3.50;;;;;;;;;;5002767;28;20768;-51
2023/04/05 10:41:23;;;;;;;4.27;3.87;;;;;;;;;;4996698;28;20785;-52
2023/04/05 10:43:49;;;;;;;3.67;3.37;;;;;;;;;;4994899;28;20190;-52
2023/04/05 10:46:20;;;;;;;3.90;3.50;;;;;;;;;;4988598;28;20182;-53
2023/04/05 10:49:02;;;;;;;3.60;3.20;;;;;;;;;;4997985;28;20598;-52
2023/04/05 10:51:29;;;;;;;4.90;3.83;;;;;;;;;;4995115;28;21927;-53
2023/04/05 10:53:56;;;;;;;4.90;3.77;;;;;;;;;;4991949;28;20191;-52
2023/04/05 10:56:23;;;;;;;3.90;3.27;;;;;;;;;;4995388;28;20181;-52
2023/04/05 10:58:50;;;;;;;5.63;3.83;;;;;;;;;;4994738;28;20319;-52
2023/04/05 11:01:17;;;;;;;4.77;3.40;;;;;;;;;;4996210;28;20313;-52
2023/04/05 11:03:53;;;;;;;4.37;3.43;;;;;;;;;;4999031;28;20631;-52
2023/04/05 11:06:29;;;;;;;4.10;3.70;;;;;;;;;;4996533;28;20242;-52
2023/04/05 11:08:58;;;;;;;4.30;3.20;;;;;;;;;;4995206;28;20183;-52
2023/04/05 11:11:27;;;;;;;5.57;3.20;;;;;;;;;;4996963;28;20210;-52
2023/04/05 11:13:57;;;;;;;4.10;3.70;;;;;;;;;;4999436;28;20203;-52
2023/04/05 11:16:37;;;;;;;4.23;3.17;;;;;;;;;;4997524;28;20788;-52
2023/04/05 11:19:03;;;;;;;5.87;3.43;;;;;;;;;;5000752;28;20214;-52
2023/04/05 11:21:30;;;;;;;4.13;3.53;;;;;;;;;;4998057;28;21375;-56
2023/04/05 11:24:05;;;;;;;4.00;3.60;;;;;;;;;;4999148;28;20661;-55
2023/04/05 11:26:51;;;;;;;6.03;3.97;;;;;;;;;;4998291;28;20170;-55
2023/04/05 11:29:18;;;;;;;3.90;3.57;;;;;;;;;;4993856;28;20581;-55
2023/04/05 11:32:00;;;;;;;4.43;3.90;;;;;;;;;;4996512;28;20182;-55
2023/04/05 11:34:26;;;;;;;4.30;3.90;;;;;;;;;;5005531;28;20201;-55
2023/04/05 11:36:52;;;;;;;3.80;3.40;;;;;;;;;;4999067;28;20733;-55
2023/04/05 11:39:19;;;;;;;5.13;4.10;;;;;;;;;;4996211;28;20190;-55
2023/04/05 11:41:46;;;;;;;8.10;6.03;;;;;;;;;;4994325;28;20183;-57
2023/04/05 11:44:16;;;;;;;4.83;4.30;;;;;;;;;;4990979;28;20671;-53
2023/04/05 11:46:42;;;;;;;7.00;5.70;;;;;;;;;;4996073;28;20217;-54
2023/04/05 11:49:08;;;;;;;7.30;5.50;;;;;;;;;;4999278;28;20179;-52
2023/04/05 11:51:35;;;;;;;7.87;6.00;;;;;;;;;;4997898;28;20665;-53
2023/04/05 11:54:01;;;;;;;7.33;5.03;;;;;;;;;;5002716;28;20272;-56
2023/04/05 11:56:27;;;;;;;7.97;4.77;;;;;;;;;;5002683;28;21095;-56
2023/04/05 11:58:57;;;;;;;7.37;5.37;;;;;;;;;;5003159;28;20170;-55
2023/04/05 12:01:23;;;;;;;8.63;5.37;;;;;;;;;;4996212;28;20193;-54
2023/04/05 12:03:54;;;;;;;6.10;4.90;;;;;;;;;;4997408;28;20580;-55
2023/04/05 12:06:21;;;;;;;6.30;4.47;;;;;;;;;;5000298;28;20182;-55
2023/04/05 12:08:51;;;;;;;5.60;4.87;;;;;;;;;;4995473;28;20244;-56
2023/04/05 12:11:24;;;;;;;5.53;4.90;;;;;;;;;;4998572;28;20698;-55
2023/04/05 12:13:54;;;;;;;6.33;4.73;;;;;;;;;;4998730;28;20203;-54
2023/04/05 12:16:20;;;;;;;6.03;4.63;;;;;;;;;;4998347;28;20228;-55
2023/04/05 12:18:52;;;;;;;8.30;5.40;;;;;;;;;;4997971;28;20183;-55
2023/04/05 12:21:18;;;;;;;6.67;5.40;;;;;;;;;;4997049;28;20226;-56
2023/04/05 12:23:44;;;;;;;6.70;4.03;;;;;;;;;;4996982;28;20191;-56
2023/04/05 12:26:10;;;;;;;5.60;4.67;;;;;;;;;;5006977;28;20229;-56
2023/04/05 12:28:52;;;;;;;4.87;4.17;;;;;;;;;;5006757;28;20189;-55
2023/04/05 12:31:37;;;;;;;4.93;4.10;;;;;;;;;;5005278;28;20194;-55
2023/04/05 12:34:03;;;;;;;4.60;4.10;;;;;;;;;;4999823;28;20218;-56
2023/04/05 12:36:32;;;;;;;4.83;4.33;;;;;;;;;;5003386;28;20189;-56
2023/04/05 12:38:59;;;;;;;4.97;4.30;;;;;;;;;;5005491;28;20193;-55
2023/04/05 12:41:29;;;;;;;4.83;3.93;;;;;;;;;;5005930;28;20650;-55
2023/04/05 12:44:03;;;;;;;4.67;4.23;;;;;;;;;;5002756;28;20186;-56
2023/04/05 12:46:41;;;;;;;6.03;4.37;;;;;;;;;;4999411;28;20177;-56
2023/04/05 12:49:11;;;;;;;4.67;4.27;;;;;;;;;;5006431;28;20717;-55
2023/04/05 12:51:41;;;;;;;4.50;4.10;;;;;;;;;;5005301;28;20190;-56
2023/04/05 12:54:08;;;;;;;7.20;4.43;;;;;;;;;;4993717;28;20202;-56
2023/04/05 12:56:34;;;;;;;4.47;4.07;;;;;;;;;;4996320;28;20183;-55
2023/04/05 12:59:00;;;;;;;5.37;4.87;;;;;;;;;;5001318;28;20645;-55
2023/04/05 13:01:26;;;;;;;5.20;4.70;;;;;;;;;;4998499;28;20182;-55
2023/04/05 13:03:52;;;;;;;9.50;5.70;;;;;;;;;;5001229;28;20710;-55
2023/04/05 13:06:18;;;;;;;7.50;4.83;;;;;;;;;;5002804;28;20203;-55
2023/04/05 13:08:44;;;;;;;7.33;5.23;;;;;;;;;;5000279;28;20182;-56
2023/04/05 13:11:10;;;;;;;7.17;4.97;;;;;;;;;;5003828;28;20632;-55
2023/04/05 13:13:36;;;;;;;5.47;4.63;;;;;;;;;;5003479;28;20182;-55
2023/04/05 13:16:02;;;;;;;7.07;5.17;;;;;;;;;;5004198;28;20189;-55
2023/04/05 13:18:29;;;;;;;5.90;5.30;;;;;;;;;;4999622;28;20658;-55
2023/04/05 13:20:55;;;;;;;8.30;5.07;;;;;;;;;;5000973;28;20241;-55
2023/04/05 13:23:21;;;;;;;6.50;5.23;;;;;;;;;;5003269;28;20474;-55
2023/04/05 13:25:47;;;;;;;6.70;5.70;;;;;;;;;;5006641;28;20613;-55
2023/04/05 13:28:13;;;;;;;7.10;5.33;;;;;;;;;;4999850;28;20194;-52
2023/04/05 13:30:39;;;;;;;6.20;5.30;;;;;;;;;;5001616;28;20186;-52
2023/04/05 13:33:05;;;;;;;7.17;6.07;;;;;;;;;;5002279;28;20306;-52
2023/04/05 13:35:32;;;;;;;11.10;6.37;;;;;;;;;;4999864;28;20721;-51
2023/04/05 13:37:58;;;;;;;6.77;5.43;;;;;;;;;;5001731;28;20186;-52
2023/04/05 13:40:24;;;;;;;8.83;5.80;;;;;;;;;;5003170;28;20178;-52
2023/04/05 13:42:50;;;;;;;8.20;5.40;;;;;;;;;;5005358;28;20182;-52
2023/04/05 13:45:16;;;;;;;6.40;5.27;;;;;;;;;;4999146;28;20274;-53
2023/04/05 13:47:42;;;;;;;5.67;5.13;;;;;;;;;;5008374;28;20185;-52
2023/04/05 13:50:09;;;;;;;6.20;5.60;;;;;;;;;;5001221;28;20218;-52
2023/04/05 13:52:36;;;;;;;10.33;6.00;;;;;;;;;;4997460;28;21329;-52
2023/04/05 13:55:02;;;;;;;6.53;5.93;;;;;;;;;;5003193;28;20202;-52
2023/04/05 13:57:29;;;;;;;7.50;6.80;;;;;;;;;;4999976;28;20431;-52
2023/04/05 13:59:55;;;;;;;8.20;7.40;;;;;;;;;;5006017;28;20178;-52
2023/04/05 14:02:24;;;;;;;6.80;5.60;;;;;;;;;;5001074;28;20812;-52
2023/04/05 14:04:51;;;;;;;8.30;5.50;;;;;;;;;;5008949;28;20407;-52
2023/04/05 14:07:17;;;;;;;7.97;5.23;;;;;;;;;;4999580;28;20186;-52
2023/04/05 14:09:43;;;;;;;5.23;4.73;;;;;;;;;;5002409;28;20310;-52
2023/04/05 14:12:09;;;;;;;8.40;5.83;;;;;;;;;;5000660;28;20198;-51
2023/04/05 14:14:36;;;;;;;8.80;5.33;;;;;;;;;;4992846;28;20212;-52
2023/04/05 14:17:02;;;;;;;8.07;5.47;;;;;;;;;;4995672;28;20183;-52
2023/04/05 14:19:28;;;;;;;7.77;5.40;;;;;;;;;;4990737;28;20306;-51
2023/04/05 14:21:54;;;;;;;8.60;6.80;;;;;;;;;;4995295;28;20226;-51
2023/04/05 14:24:20;;;;;;;6.63;5.80;;;;;;;;;;4995006;28;21332;-51
2023/04/05 14:26:48;;;;;;;7.97;5.83;;;;;;;;;;4996359;28;20178;-52
2023/04/05 14:29:18;;;;;;;6.93;5.70;;;;;;;;;;4991875;28;20209;-51
2023/04/05 14:31:44;;;;;;;6.23;5.37;;;;;;;;;;4995187;28;20391;-51
2023/04/05 14:34:11;;;;;;;8.33;5.20;;;;;;;;;;4994621;28;20251;-51
2023/04/05 14:36:37;;;;;;;6.40;5.70;;;;;;;;;;4996607;28;20547;-51
2023/04/05 14:39:03;;;;;;;7.23;6.17;;;;;;;;;;4996005;28;20175;-51
2023/04/05 14:41:29;;;;;;;10.37;5.73;;;;;;;;;;5002512;28;20182;-51
2023/04/05 14:43:56;;;;;;;8.30;6.03;;;;;;;;;;5003644;28;20190;-52
2023/04/05 14:46:22;;;;;;;6.50;5.70;;;;;;;;;;4999739;28;20650;-52